Aérodrome :
LOGIN :

S'inscrire | Disclaimer

   EN    FR    IT 

 










Légende :    VFR   VFR Marginal   IFR   IFR Intensif   IFR Très Intensif
Visi : 
Plafond : 
>= 8 km
>= 3000ft
5 à 8 km
1000 à 3000 ft
1500m à 5 km
500 à 1000 ft
800 à 1500m
200 à 500 ft
< 800m
< 200 ft
Symboles :   Orages  Brouillard  Fortes neiges  Fortes précipitations  Vent > 20 kt
SIGMETs :   Divers  Orages  Givrage  Turbulence  Onde Orograph.  Cendres Volcan.






- Altitude de l'aérodrome : 16 ft
- Code IATA : EAS


LESO - San Sebastian Fuenterrabia

DERNIER METAR :
  • 180000Z AUTO 20003KT 150V240 CAVOK 07/06 Q1032

METARs EXPIRÉS :
  • 172330Z AUTO 13005KT CAVOK 07/06 Q1032
  • 172300Z AUTO 16004KT 9999 FEW048 07/06 Q1033
  • 172230Z AUTO 15004KT 9999 FEW038 08/06 Q1033
  • 172200Z AUTO 16003KT CAVOK 08/06 Q1033
  • 172130Z AUTO 19005KT CAVOK 08/07 Q1033

TAF TAF LESO
Valide du 18 à 00h jusqu'au 19 à 00h UTC


172300Z 1800/1824 16006KT 9999 SCT050 TX13/1814Z TN05/1806Z
PROB40
TEMPO 1810/1818 12015G25KT
BECMG 1816/1818 06010KT
TEMPO 1815/1824 3000 RA SHRA SCT030TCU



MET'MAP, la Météo Aéronautique d'un coup d'oeil ! - Copyright ORBIFLY Décembre 2007 - Disclaimer

ORBIFLY MET'MAP TEAM :

Programmation & Développement : Alexandra Zaïnal
Sur une idée originale de : Baudouin d'Aumeries
Assistance à la programmation : Marc-Olivier Méhu
Soutien technique & logistique : Manuel Goepfert

Contact : metmap@orbifly.com




SOURCES & CREDITS :

   NOAA